Terminal Aerodrome Forecast
Issued by NWS Cleveland, OH

Home | Current Version | Previous Version | Text Only | Print | Product List | Glossary On
Versions: 1 2 3 4 5 6 7 8 9 10 11 12 13 14 15 16
000
FTUS41 KCLE 020500
TAFERI
TAF
KERI 020537Z 0206/0306 00000KT P6SM VCTS SCT045CB OVC100CB
     FM020800 00000KT P6SM BKN100
      TEMPO 0210/0213 5SM BR
     FM021500 36006KT P6SM SCT050
     FM021900 03006KT P6SM VCTS BKN050CB=

USA.gov is the U.S. government's official web portal to all federal, state and local government web resources and services.